Time;durP1;ratioP1;P1;durP2;ratioP2;P2;SDS_P1;SDS_P2;PMS_P1;PMS_P2;Temp;Humidity;BMP_temperature;BMP_pressure;BME280_temperature;BME280_humidity;BME280_pressure;Samples;Min_cycle;Max_cycle;Signal;HPM_P1;HPM_P2
2022/03/29 00:00:13;;;;;;;0.80;0.80;;;6.80;99.90;;;;;;5011187;28;20088;-73
2022/03/29 00:02:39;;;;;;;0.90;0.90;;;6.80;99.90;;;;;;4981936;28;20045;-73
2022/03/29 00:05:06;;;;;;;6.25;4.80;;;6.80;99.90;;;;;;4995026;28;20045;-73
2022/03/29 00:07:31;;;;;;;2.78;2.58;;;6.80;99.90;;;;;;5011499;28;20045;-72
2022/03/29 00:09:57;;;;;;;0.77;0.77;;;6.80;99.90;;;;;;5003787;28;20087;-73
2022/03/29 00:12:23;;;;;;;0.70;0.70;;;6.80;99.90;;;;;;4994672;28;20051;-73
2022/03/29 00:14:48;;;;;;;5.93;5.38;;;6.80;99.90;;;;;;4994888;28;20037;-72
2022/03/29 00:17:14;;;;;;;1.67;1.55;;;6.80;99.90;;;;;;4985215;28;20049;-72
2022/03/29 00:19:39;;;;;;;0.57;0.57;;;6.80;99.90;;;;;;5010159;28;20037;-72
2022/03/29 00:22:05;;;;;;;0.70;0.70;;;6.80;99.90;;;;;;5011424;28;20084;-73
2022/03/29 00:24:31;;;;;;;1.83;1.60;;;6.90;99.90;;;;;;5011372;28;20061;-72
2022/03/29 00:26:56;;;;;;;1.30;1.25;;;6.80;99.90;;;;;;5011137;28;20057;-72
2022/03/29 00:29:22;;;;;;;0.55;0.55;;;6.90;99.90;;;;;;5011735;28;20065;-72
2022/03/29 00:31:47;;;;;;;0.60;0.60;;;6.80;99.90;;;;;;4980017;28;20038;-72
2022/03/29 00:34:13;;;;;;;0.93;0.93;;;6.80;99.90;;;;;;5011533;28;20476;-72
2022/03/29 00:36:40;;;;;;;0.68;0.68;;;6.90;99.90;;;;;;4994614;28;20120;-72
2022/03/29 00:39:05;;;;;;;0.50;0.50;;;6.90;99.90;;;;;;5008614;28;20389;-72
2022/03/29 00:41:31;;;;;;;1.10;1.10;;;6.90;99.90;;;;;;4994415;28;20033;-72
2022/03/29 00:43:57;;;;;;;1.00;1.00;;;6.90;99.90;;;;;;5011112;28;20038;-72
2022/03/29 00:46:23;;;;;;;2.17;2.08;;;6.90;99.90;;;;;;4994288;28;20040;-72
2022/03/29 00:48:49;;;;;;;0.40;0.40;;;6.90;99.90;;;;;;5000182;28;20813;-72
2022/03/29 00:51:16;;;;;;;2.05;1.33;;;6.90;99.90;;;;;;5005635;28;20493;-72
2022/03/29 00:53:42;;;;;;;0.40;0.40;;;6.90;99.90;;;;;;5010691;28;20116;-72
2022/03/29 00:56:08;;;;;;;0.50;0.50;;;7.00;99.90;;;;;;4994202;28;20077;-73
2022/03/29 00:58:35;;;;;;;0.57;0.57;;;6.90;99.90;;;;;;4993981;28;20084;-73
2022/03/29 01:01:02;;;;;;;5.88;4.10;;;7.00;99.90;;;;;;4994292;28;20045;-74
2022/03/29 01:03:30;;;;;;;0.60;0.60;;;7.00;99.90;;;;;;4988837;28;20087;-73
2022/03/29 01:05:56;;;;;;;0.30;0.30;;;7.00;99.90;;;;;;4994792;28;20083;-73
2022/03/29 01:08:24;;;;;;;0.40;0.40;;;6.90;99.90;;;;;;5009987;28;20501;-74
2022/03/29 01:10:50;;;;;;;0.85;0.85;;;6.90;99.90;;;;;;5010718;28;20505;-73
2022/03/29 01:13:17;;;;;;;0.93;0.93;;;6.90;99.90;;;;;;5009758;28;20087;-73
2022/03/29 01:15:43;;;;;;;4.32;1.73;;;6.90;99.90;;;;;;4994426;28;20159;-73
2022/03/29 01:18:10;;;;;;;0.30;0.30;;;7.00;99.90;;;;;;5010008;28;20151;-74
2022/03/29 01:20:37;;;;;;;0.88;0.88;;;7.00;99.90;;;;;;4994011;28;20049;-73
2022/03/29 01:23:04;;;;;;;1.83;1.73;;;7.00;99.90;;;;;;4994010;28;20052;-72
2022/03/29 01:25:37;;;;;;;2.08;1.98;;;7.00;99.90;;;;;;5010166;28;20072;-73
2022/03/29 01:28:05;;;;;;;0.77;0.77;;;7.00;99.90;;;;;;4994036;28;20064;-73
2022/03/29 01:30:31;;;;;;;0.40;0.40;;;6.90;99.90;;;;;;5009476;28;20037;-73
2022/03/29 01:33:00;;;;;;;7.60;3.88;;;6.90;99.90;;;;;;4994157;28;20037;-73
2022/03/29 01:35:26;;;;;;;1.35;1.25;;;6.90;99.90;;;;;;4994320;28;20432;-73
2022/03/29 01:37:53;;;;;;;0.60;0.60;;;6.90;99.90;;;;;;4994001;28;20052;-73
2022/03/29 01:40:21;;;;;;;0.65;0.65;;;6.90;99.90;;;;;;4993576;28;20050;-73
2022/03/29 01:42:48;;;;;;;0.40;0.40;;;6.90;99.90;;;;;;4993508;28;20045;-73
2022/03/29 01:45:15;;;;;;;0.30;0.30;;;6.90;99.90;;;;;;5006348;28;20048;-73
2022/03/29 01:47:41;;;;;;;0.30;0.30;;;6.90;99.90;;;;;;5009655;28;20052;-73
2022/03/29 01:50:08;;;;;;;1.42;1.33;;;6.90;99.90;;;;;;5009609;28;20038;-73
2022/03/29 01:52:39;;;;;;;0.88;0.88;;;6.90;99.90;;;;;;5006944;28;20104;-73
2022/03/29 01:55:05;;;;;;;0.40;0.40;;;6.90;99.90;;;;;;5008633;28;20054;-73
2022/03/29 01:57:30;;;;;;;0.55;0.55;;;6.90;99.90;;;;;;5023606;28;20093;-73
2022/03/29 02:02:40;;;;;;;1.70;1.60;;;6.90;99.90;;;;;;5009337;28;20038;-73
2022/03/29 02:05:06;;;;;;;2.10;1.90;;;6.80;99.90;;;;;;4993944;28;20048;-72
2022/03/29 02:07:32;;;;;;;2.10;1.77;;;6.80;99.90;;;;;;5009907;28;20481;-72
2022/03/29 02:09:57;;;;;;;3.75;2.58;;;6.90;99.90;;;;;;4994138;28;20049;-73
2022/03/29 02:12:23;;;;;;;5.03;2.67;;;6.90;99.90;;;;;;4991857;28;20037;-72
2022/03/29 02:14:48;;;;;;;0.85;0.80;;;6.90;99.90;;;;;;5014290;28;20489;-72
2022/03/29 02:17:14;;;;;;;0.50;0.50;;;6.80;99.90;;;;;;4997257;28;20037;-73
2022/03/29 02:19:40;;;;;;;0.82;0.82;;;6.80;99.90;;;;;;4994444;28;20091;-72
2022/03/29 02:22:05;;;;;;;0.60;0.60;;;6.80;99.90;;;;;;4997662;28;20041;-73
2022/03/29 02:24:31;;;;;;;1.48;1.45;;;6.80;99.90;;;;;;5012247;28;20042;-73
2022/03/29 02:26:57;;;;;;;3.08;2.13;;;6.80;99.90;;;;;;5013151;28;20042;-72
2022/03/29 02:29:22;;;;;;;0.47;0.47;;;6.80;99.90;;;;;;4997403;28;20501;-72
2022/03/29 02:31:48;;;;;;;6.18;3.95;;;6.80;99.90;;;;;;4996218;28;20124;-72
2022/03/29 02:34:13;;;;;;;0.70;0.70;;;6.80;99.90;;;;;;4996841;28;20143;-72
2022/03/29 02:36:39;;;;;;;0.38;0.38;;;6.80;99.90;;;;;;5010140;28;20048;-73
2022/03/29 02:39:05;;;;;;;0.40;0.40;;;6.80;99.90;;;;;;5013592;28;20562;-72
2022/03/29 02:41:30;;;;;;;7.35;3.10;;;6.80;99.90;;;;;;4996938;28;20037;-73
2022/03/29 02:43:56;;;;;;;0.38;0.38;;;6.80;99.90;;;;;;5010571;28;20124;-73
2022/03/29 02:46:22;;;;;;;0.40;0.40;;;6.80;99.90;;;;;;5011723;28;20068;-73
2022/03/29 02:48:47;;;;;;;0.40;0.40;;;6.80;99.90;;;;;;4996349;28;20049;-73
2022/03/29 02:51:13;;;;;;;0.40;0.40;;;6.80;99.90;;;;;;5007929;28;20033;-73
2022/03/29 02:53:38;;;;;;;1.45;1.23;;;6.80;99.90;;;;;;5012068;28;20512;-73
2022/03/29 02:56:04;;;;;;;0.77;0.77;;;6.70;99.90;;;;;;4996801;28;20071;-73
2022/03/29 02:58:29;;;;;;;0.40;0.40;;;6.70;99.90;;;;;;5013394;28;20046;-73
2022/03/29 03:00:55;;;;;;;1.13;1.13;;;6.70;99.90;;;;;;4995657;28;20041;-73
2022/03/29 03:03:21;;;;;;;0.40;0.40;;;6.70;99.90;;;;;;5012901;28;20490;-73
2022/03/29 03:05:46;;;;;;;0.60;0.60;;;6.70;99.90;;;;;;5010746;28;20132;-73
2022/03/29 03:08:13;;;;;;;0.60;0.60;;;6.70;99.90;;;;;;4995989;28;20489;-73
2022/03/29 03:10:38;;;;;;;0.50;0.50;;;6.70;99.90;;;;;;5013424;28;20049;-73
2022/03/29 03:13:04;;;;;;;1.00;1.00;;;6.70;99.90;;;;;;4996462;28;20100;-73
2022/03/29 03:15:30;;;;;;;7.15;2.47;;;6.70;99.90;;;;;;4996430;28;20481;-73
2022/03/29 03:17:55;;;;;;;0.30;0.30;;;6.70;99.90;;;;;;5007288;28;20049;-73
2022/03/29 03:20:22;;;;;;;0.73;0.73;;;6.70;99.90;;;;;;5012838;28;20489;-73
2022/03/29 03:22:48;;;;;;;1.25;1.25;;;6.70;99.90;;;;;;5011578;28;20037;-72
2022/03/29 03:25:14;;;;;;;6.70;1.95;;;6.70;99.90;;;;;;4999302;28;20441;-72
2022/03/29 03:27:40;;;;;;;0.40;0.40;;;6.70;99.90;;;;;;4999652;28;20410;-73
2022/03/29 03:30:10;;;;;;;0.70;0.70;;;6.70;99.90;;;;;;5009413;28;20610;-73
2022/03/29 03:32:36;;;;;;;0.40;0.40;;;6.70;99.90;;;;;;5007962;28;20037;-73
2022/03/29 03:35:01;;;;;;;0.40;0.40;;;6.70;99.90;;;;;;5008853;28;20042;-73
2022/03/29 03:37:27;;;;;;;0.95;0.95;;;6.70;99.90;;;;;;5019954;28;20604;-73
2022/03/29 03:39:52;;;;;;;0.38;0.38;;;6.70;99.90;;;;;;4997327;28;20045;-72
2022/03/29 03:42:18;;;;;;;0.98;0.98;;;6.70;99.90;;;;;;4992628;28;20041;-73
2022/03/29 03:44:44;;;;;;;11.90;7.13;;;6.70;99.90;;;;;;4992498;28;20041;-72
2022/03/29 03:47:10;;;;;;;1.48;1.38;;;6.70;99.90;;;;;;4981927;28;20041;-73
2022/03/29 03:49:36;;;;;;;1.38;1.33;;;6.70;99.90;;;;;;4993009;28;20115;-73
2022/03/29 03:52:03;;;;;;;0.70;0.70;;;6.70;99.90;;;;;;4989413;28;20044;-73
2022/03/29 03:54:28;;;;;;;1.88;1.77;;;6.70;99.90;;;;;;4992359;28;20038;-73
2022/03/29 03:56:54;;;;;;;0.60;0.60;;;6.70;99.90;;;;;;4992445;28;20533;-73
2022/03/29 03:59:19;;;;;;;1.73;1.65;;;6.70;99.90;;;;;;5005355;28;20092;-72
2022/03/29 04:01:45;;;;;;;1.27;0.95;;;6.70;99.90;;;;;;5004735;28;20034;-73
2022/03/29 04:04:11;;;;;;;2.58;2.38;;;6.70;99.90;;;;;;5008324;28;20041;-73
2022/03/29 04:06:37;;;;;;;6.47;1.30;;;6.70;99.90;;;;;;5008185;28;20504;-73
2022/03/29 04:09:03;;;;;;;0.55;0.55;;;6.70;99.90;;;;;;4991272;28;20128;-72
2022/03/29 04:11:28;;;;;;;0.65;0.65;;;6.70;99.90;;;;;;4992749;28;20051;-72
2022/03/29 04:13:54;;;;;;;0.60;0.60;;;6.70;99.90;;;;;;5022190;28;20045;-72
2022/03/29 04:16:20;;;;;;;0.57;0.57;;;6.70;99.90;;;;;;4992268;28;20037;-72
2022/03/29 04:18:46;;;;;;;0.47;0.47;;;6.70;99.90;;;;;;5006276;28;20045;-73
2022/03/29 04:21:12;;;;;;;0.60;0.60;;;6.70;99.90;;;;;;5008054;28;20401;-72
2022/03/29 04:23:38;;;;;;;0.40;0.40;;;6.70;99.90;;;;;;4990513;28;20045;-73
2022/03/29 04:26:04;;;;;;;0.40;0.40;;;6.70;99.90;;;;;;4991841;28;20388;-73
2022/03/29 04:28:32;;;;;;;3.08;2.88;;;6.70;99.90;;;;;;5007527;28;20164;-72
2022/03/29 04:30:59;;;;;;;2.63;2.03;;;6.70;99.90;;;;;;5008214;28;20046;-73
2022/03/29 04:33:29;;;;;;;0.73;0.73;;;6.70;99.90;;;;;;4991059;28;20045;-73
2022/03/29 04:35:55;;;;;;;2.25;2.15;;;6.70;99.90;;;;;;4991255;28;20093;-73
2022/03/29 04:38:21;;;;;;;1.55;1.15;;;6.70;99.90;;;;;;5004615;28;20065;-74
2022/03/29 04:40:47;;;;;;;3.10;2.95;;;6.70;99.90;;;;;;4989808;28;20577;-73
2022/03/29 04:43:13;;;;;;;3.80;3.17;;;6.70;99.90;;;;;;4988008;28;20045;-73
2022/03/29 04:45:38;;;;;;;1.10;1.02;;;6.70;99.90;;;;;;4992168;28;20053;-73
2022/03/29 04:48:04;;;;;;;1.45;1.38;;;6.70;99.90;;;;;;5007112;28;20554;-73
2022/03/29 04:50:30;;;;;;;1.65;1.55;;;6.60;99.90;;;;;;4991301;28;20042;-73
2022/03/29 04:52:56;;;;;;;0.93;0.93;;;6.70;99.90;;;;;;5007612;28;20572;-73
2022/03/29 04:55:22;;;;;;;0.47;0.47;;;6.70;99.90;;;;;;4991682;28;20554;-73
2022/03/29 04:57:49;;;;;;;1.35;1.35;;;6.60;99.90;;;;;;4991362;28;20076;-72
2022/03/29 05:00:22;;;;;;;0.40;0.40;;;6.60;99.90;;;;;;5023207;28;20049;-72
2022/03/29 05:02:48;;;;;;;;;;;6.60;99.90;;;;;;4992336;28;20129;-73
2022/03/29 05:05:14;;;;;;;4.38;2.15;;;6.60;99.90;;;;;;5007461;28;20008;-73
2022/03/29 05:07:41;;;;;;;5.35;2.22;;;6.60;99.90;;;;;;5006726;28;20042;-72
2022/03/29 05:10:08;;;;;;;0.60;0.60;;;6.60;99.90;;;;;;5009162;28;20041;-72
2022/03/29 05:12:47;;;;;;;0.82;0.82;;;6.60;99.90;;;;;;4993910;28;20038;-72
2022/03/29 05:15:16;;;;;;;0.95;0.95;;;6.60;99.90;;;;;;5007742;28;20201;-73
2022/03/29 05:17:42;;;;;;;1.25;1.00;;;6.60;99.90;;;;;;5006421;28;20045;-72
2022/03/29 05:20:09;;;;;;;0.50;0.50;;;6.60;99.90;;;;;;4989865;28;20046;-72
2022/03/29 05:22:46;;;;;;;0.30;0.30;;;6.60;99.90;;;;;;5006993;28;20437;-72
2022/03/29 05:25:13;;;;;;;0.50;0.50;;;6.60;99.90;;;;;;5002054;28;20348;-72
2022/03/29 05:27:40;;;;;;;0.40;0.40;;;6.60;99.90;;;;;;4995638;28;20046;-72
2022/03/29 05:30:06;;;;;;;0.35;0.35;;;6.60;99.90;;;;;;5007162;28;20030;-72
2022/03/29 05:32:32;;;;;;;0.95;0.95;;;6.60;99.90;;;;;;5006981;28;20478;-72
2022/03/29 05:34:58;;;;;;;0.50;0.50;;;6.60;99.90;;;;;;5006493;28;20049;-72
2022/03/29 05:37:23;;;;;;;0.50;0.50;;;6.60;99.90;;;;;;5007768;28;20555;-72
2022/03/29 05:39:49;;;;;;;0.60;0.60;;;6.60;99.90;;;;;;5007120;28;20175;-72
2022/03/29 05:42:15;;;;;;;0.50;0.50;;;6.60;99.90;;;;;;5006991;28;20045;-72
2022/03/29 05:44:41;;;;;;;0.70;0.70;;;6.60;99.90;;;;;;5008248;28;20049;-72
2022/03/29 05:49:52;;;;;;;0.50;0.50;;;6.60;99.90;;;;;;5010873;28;20046;-72
2022/03/29 05:52:18;;;;;;;0.50;0.50;;;6.60;99.90;;;;;;5013005;28;20074;-72
2022/03/29 05:54:45;;;;;;;2.72;1.85;;;6.70;99.90;;;;;;5004226;28;20038;-72
2022/03/29 05:57:17;;;;;;;0.40;0.40;;;6.70;99.90;;;;;;4997349;28;20057;-73
2022/03/29 05:59:45;;;;;;;0.75;0.75;;;6.70;99.90;;;;;;4991765;28;20088;-72
2022/03/29 06:02:11;;;;;;;5.57;2.80;;;6.70;99.90;;;;;;5020337;28;20080;-72
2022/03/29 06:04:37;;;;;;;0.40;0.40;;;6.70;99.90;;;;;;5010264;28;20100;-72
2022/03/29 06:07:07;;;;;;;1.35;1.33;;;6.80;99.90;;;;;;4994946;28;20469;-73
2022/03/29 06:09:34;;;;;;;0.45;0.45;;;6.80;99.90;;;;;;5020965;28;20404;-72
2022/03/29 06:12:00;;;;;;;0.95;0.95;;;6.80;99.90;;;;;;4994448;28;20160;-72
2022/03/29 06:14:26;;;;;;;0.70;0.70;;;6.80;99.90;;;;;;5010874;28;20042;-72
2022/03/29 06:16:52;;;;;;;0.90;0.90;;;6.90;99.90;;;;;;4994982;28;20068;-72
2022/03/29 06:19:18;;;;;;;0.75;0.75;;;6.90;99.90;;;;;;5019614;28;20502;-71
2022/03/29 06:21:44;;;;;;;0.40;0.40;;;6.90;99.90;;;;;;4994520;28;20107;-72
2022/03/29 06:24:11;;;;;;;0.35;0.35;;;6.90;99.90;;;;;;5012111;28;20038;-71
2022/03/29 06:26:39;;;;;;;0.60;0.60;;;6.90;99.90;;;;;;5012896;28;20412;-72
2022/03/29 06:29:10;;;;;;;0.40;0.40;;;7.00;99.90;;;;;;5010631;28;20498;-72
2022/03/29 06:31:36;;;;;;;0.50;0.50;;;7.00;99.90;;;;;;5006762;28;20432;-72
2022/03/29 06:34:03;;;;;;;1.27;1.17;;;7.00;99.90;;;;;;4994341;28;20042;-71
2022/03/29 06:36:29;;;;;;;0.50;0.50;;;7.10;99.90;;;;;;4992431;28;20054;-72
2022/03/29 06:38:55;;;;;;;4.40;3.25;;;7.10;99.90;;;;;;4996229;28;20368;-72
2022/03/29 06:41:21;;;;;;;5.68;5.15;;;7.10;99.90;;;;;;5011784;28;20048;-72
2022/03/29 06:43:47;;;;;;;2.72;1.58;;;7.10;99.90;;;;;;5013721;28;20045;-72
2022/03/29 06:46:14;;;;;;;1.50;1.40;;;7.20;99.90;;;;;;5010662;28;20517;-72
2022/03/29 06:48:44;;;;;;;12.68;3.28;;;7.20;99.90;;;;;;4994387;28;20095;-72
2022/03/29 06:51:12;;;;;;;2.35;2.15;;;7.20;99.90;;;;;;5011577;28;20132;-72
2022/03/29 06:53:42;;;;;;;0.57;0.57;;;7.20;99.90;;;;;;4978519;28;20087;-72
2022/03/29 06:56:08;;;;;;;0.63;0.63;;;7.20;99.90;;;;;;4989953;28;20052;-71
2022/03/29 06:58:35;;;;;;;6.63;3.90;;;7.20;99.90;;;;;;4994519;28;20044;-72
2022/03/29 07:01:00;;;;;;;2.22;2.03;;;7.20;99.90;;;;;;4994157;28;20042;-72
2022/03/29 07:03:27;;;;;;;0.50;0.50;;;7.20;99.90;;;;;;4993979;28;20049;-72
2022/03/29 07:05:53;;;;;;;10.00;7.32;;;7.20;99.90;;;;;;4995271;28;20045;-72
2022/03/29 07:08:20;;;;;;;1.60;1.50;;;7.20;99.90;;;;;;5013565;28;20049;-72
2022/03/29 07:13:31;;;;;;;1.02;1.02;;;7.30;99.90;;;;;;5003098;28;20104;-72
2022/03/29 07:15:56;;;;;;;0.60;0.60;;;7.30;99.90;;;;;;4993561;28;20037;-72
2022/03/29 07:18:22;;;;;;;4.50;4.25;;;7.30;99.90;;;;;;5001729;28;20121;-72
2022/03/29 07:20:48;;;;;;;0.60;0.60;;;7.40;99.90;;;;;;4996676;28;20049;-72
2022/03/29 07:23:14;;;;;;;1.58;1.50;;;7.40;99.90;;;;;;5009876;28;20045;-72
2022/03/29 07:25:39;;;;;;;3.47;3.15;;;7.40;99.90;;;;;;4993046;28;20058;-72
2022/03/29 07:28:11;;;;;;;18.73;3.85;;;7.50;99.90;;;;;;5010186;28;20060;-73
2022/03/29 07:30:38;;;;;;;6.47;4.40;;;7.50;99.90;;;;;;5009982;28;20765;-72
2022/03/29 07:33:04;;;;;;;5.38;4.95;;;7.50;99.90;;;;;;4993995;28;20053;-73
2022/03/29 07:35:30;;;;;;;4.85;3.80;;;7.60;99.90;;;;;;5008641;28;20104;-72
2022/03/29 07:37:56;;;;;;;3.78;3.47;;;7.60;99.90;;;;;;5009438;28;20164;-72
2022/03/29 07:40:24;;;;;;;0.93;0.93;;;7.60;99.90;;;;;;4993181;28;20046;-72
2022/03/29 07:42:50;;;;;;;3.30;3.05;;;7.60;99.90;;;;;;4977802;28;20425;-72
2022/03/29 07:45:16;;;;;;;2.92;1.75;;;7.60;99.90;;;;;;4998215;28;20058;-72
2022/03/29 07:47:43;;;;;;;0.93;0.93;;;7.60;99.90;;;;;;4992849;28;20046;-72
2022/03/29 07:50:11;;;;;;;1.65;0.98;;;7.60;99.90;;;;;;4992842;28;20041;-72
2022/03/29 07:52:39;;;;;;;4.03;3.70;;;7.70;99.90;;;;;;4986164;28;20037;-72
2022/03/29 07:55:06;;;;;;;11.32;4.72;;;7.70;99.90;;;;;;4995641;28;20460;-72
2022/03/29 07:57:33;;;;;;;4.72;1.90;;;7.70;99.90;;;;;;5011137;28;20041;-72
2022/03/29 07:59:59;;;;;;;6.82;3.38;;;7.80;99.90;;;;;;4995675;28;20053;-72
2022/03/29 08:02:25;;;;;;;0.40;0.40;;;7.80;99.90;;;;;;4986687;28;20034;-72
2022/03/29 08:04:51;;;;;;;3.95;2.47;;;7.90;99.90;;;;;;5010140;28;20049;-72
2022/03/29 08:07:16;;;;;;;2.30;2.10;;;7.90;99.90;;;;;;5008409;28;20053;-72
2022/03/29 08:09:42;;;;;;;3.45;3.20;;;8.00;99.90;;;;;;5009647;28;20045;-72
2022/03/29 08:12:08;;;;;;;0.82;0.82;;;8.10;99.90;;;;;;4992829;28;20041;-72
2022/03/29 08:14:34;;;;;;;37.38;2.05;;;8.20;99.90;;;;;;5011550;28;20116;-72
2022/03/29 08:16:59;;;;;;;4.53;2.83;;;8.20;99.90;;;;;;4995471;28;20391;-72
2022/03/29 08:19:25;;;;;;;2.08;1.98;;;8.30;99.90;;;;;;4982284;28;20049;-72
2022/03/29 08:21:52;;;;;;;7.80;4.90;;;8.40;99.90;;;;;;4991555;28;20037;-72
2022/03/29 08:24:24;;;;;;;1.98;1.88;;;8.50;99.90;;;;;;5008357;28;20120;-72
2022/03/29 08:26:52;;;;;;;0.40;0.40;;;8.60;99.90;;;;;;4975791;28;20561;-72
2022/03/29 08:29:21;;;;;;;0.47;0.47;;;8.70;99.90;;;;;;5006453;28;20143;-72
2022/03/29 08:31:49;;;;;;;2.30;1.50;;;8.80;99.90;;;;;;5011417;28;20049;-72
2022/03/29 08:34:15;;;;;;;2.15;1.58;;;8.90;99.90;;;;;;5011189;28;20485;-72
2022/03/29 08:36:41;;;;;;;1.52;1.42;;;9.00;99.90;;;;;;5028646;28;20053;-72
2022/03/29 08:39:08;;;;;;;6.95;3.95;;;9.10;99.90;;;;;;4995560;28;20132;-72
2022/03/29 08:41:46;;;;;;;1.20;1.20;;;9.10;99.90;;;;;;5011882;28;20864;-72
2022/03/29 08:44:12;;;;;;;2.10;1.52;;;9.10;99.90;;;;;;4999801;28;20056;-73
2022/03/29 08:46:41;;;;;;;1.88;1.65;;;9.20;99.90;;;;;;4975955;28;20050;-72
2022/03/29 08:49:07;;;;;;;6.00;4.32;;;9.30;99.90;;;;;;4993013;28;20120;-72
2022/03/29 08:51:34;;;;;;;1.00;1.00;;;9.40;99.90;;;;;;5027862;28;20132;-72
2022/03/29 08:54:00;;;;;;;1.13;1.13;;;9.50;99.90;;;;;;5000287;28;20397;-72
2022/03/29 08:56:26;;;;;;;2.53;2.17;;;9.50;99.90;;;;;;4995453;28;20045;-72
2022/03/29 08:58:51;;;;;;;14.90;6.45;;;9.50;99.90;;;;;;5007932;28;20045;-72
2022/03/29 09:01:22;;;;;;;8.02;6.25;;;9.60;99.90;;;;;;5008013;28;20125;-72
2022/03/29 09:04:20;;;;;;;6.43;4.18;;;9.60;99.90;;;;;;4984245;28;20085;-72
2022/03/29 09:07:01;;;;;;;1.38;1.27;;;9.70;99.90;;;;;;4979665;28;20081;-73
2022/03/29 09:09:27;;;;;;;8.05;2.83;;;9.60;99.90;;;;;;5000342;28;20387;-72
2022/03/29 09:11:55;;;;;;;7.03;2.85;;;9.60;99.90;;;;;;5002751;28;20069;-73
2022/03/29 09:14:25;;;;;;;3.45;2.60;;;9.60;99.90;;;;;;4991357;28;20080;-73
2022/03/29 09:16:54;;;;;;;3.40;2.67;;;9.60;99.90;;;;;;4978560;28;20103;-73
2022/03/29 09:19:25;;;;;;;10.90;7.10;;;9.70;99.90;;;;;;5023547;28;20389;-73
2022/03/29 09:21:54;;;;;;;1.23;1.23;;;9.70;99.90;;;;;;5010957;28;20116;-73
2022/03/29 09:24:20;;;;;;;2.67;2.40;;;9.70;99.90;;;;;;4993190;28;20460;-72
2022/03/29 09:26:54;;;;;;;11.15;5.38;;;9.70;99.90;;;;;;5010992;28;20083;-72
2022/03/29 09:29:21;;;;;;;10.88;3.65;;;9.80;99.90;;;;;;5011245;28;20146;-72
2022/03/29 09:32:00;;;;;;;9.00;3.55;;;9.90;99.90;;;;;;4994810;28;20056;-72
2022/03/29 09:34:28;;;;;;;12.43;3.85;;;10.00;99.90;;;;;;5014757;28;20050;-72
2022/03/29 09:36:54;;;;;;;0.65;0.65;;;10.10;99.90;;;;;;5008780;28;20058;-72
2022/03/29 09:39:42;;;;;;;10.35;3.13;;;10.30;99.90;;;;;;5005287;28;20040;-72
2022/03/29 09:42:13;;;;;;;9.40;3.85;;;10.70;99.90;;;;;;4994332;28;20087;-72
2022/03/29 09:44:47;;;;;;;2.00;1.90;;;11.10;99.90;;;;;;5026935;28;20525;-72
2022/03/29 09:47:15;;;;;;;3.35;2.95;;;11.40;99.90;;;;;;5024416;28;20500;-72
2022/03/29 09:49:52;;;;;;;7.57;4.15;;;11.50;99.90;;;;;;5007642;28;20046;-72
2022/03/29 09:52:20;;;;;;;5.25;1.35;;;11.50;99.90;;;;;;4999953;28;20091;-72
2022/03/29 09:55:09;;;;;;;3.65;1.63;;;11.50;99.90;;;;;;5009304;28;20088;-72
2022/03/29 09:57:44;;;;;;;5.68;2.55;;;11.40;99.90;;;;;;4974989;28;20042;-72
2022/03/29 10:00:12;;;;;;;12.07;4.43;;;11.50;99.90;;;;;;4991133;28;20050;-72
2022/03/29 10:02:40;;;;;;;1.58;1.25;;;11.50;99.90;;;;;;5005984;28;20083;-73
2022/03/29 10:05:08;;;;;;;4.28;0.45;;;11.30;99.90;;;;;;4990808;28;20049;-72
2022/03/29 10:07:47;;;;;;;7.05;2.40;;;11.20;99.90;;;;;;5010516;28;20103;-72
2022/03/29 10:10:13;;;;;;;4.50;1.65;;;11.20;99.90;;;;;;4987982;28;20051;-72
2022/03/29 10:12:39;;;;;;;5.80;2.95;;;11.20;99.90;;;;;;4994596;28;20037;-72
2022/03/29 10:15:06;;;;;;;2.80;2.25;;;11.20;99.90;;;;;;5001139;28;20168;-72
2022/03/29 10:17:33;;;;;;;15.98;4.80;;;11.00;99.90;;;;;;4999320;28;20046;-72
2022/03/29 10:20:01;;;;;;;1.30;1.20;;;11.00;99.90;;;;;;4990708;28;20088;-72
2022/03/29 10:22:27;;;;;;;8.05;2.75;;;11.00;99.90;;;;;;5008802;28;20041;-72
2022/03/29 10:24:53;;;;;;;14.25;4.38;;;11.00;99.90;;;;;;5005411;28;20080;-72
2022/03/29 10:27:20;;;;;;;8.02;3.55;;;10.90;99.90;;;;;;5009756;28;20056;-72
2022/03/29 10:29:46;;;;;;;12.23;4.78;;;10.90;99.90;;;;;;5010125;28;20038;-72
2022/03/29 10:32:31;;;;;;;8.68;3.35;;;10.60;99.90;;;;;;4994090;28;20512;-72
2022/03/29 10:35:10;;;;;;;2.30;2.03;;;10.50;99.90;;;;;;5014024;28;20037;-72
2022/03/29 10:37:53;;;;;;;5.28;2.40;;;10.60;99.90;;;;;;4997593;28;20081;-72
2022/03/29 10:40:48;;;;;;;8.45;4.28;;;10.70;99.90;;;;;;5012645;28;20057;-72
2022/03/29 10:43:29;;;;;;;8.93;3.47;;;10.70;99.90;;;;;;4999869;28;20056;-72
2022/03/29 10:45:56;;;;;;;7.90;2.88;;;10.70;99.90;;;;;;4994252;28;20132;-72
2022/03/29 10:48:22;;;;;;;1.63;0.80;;;10.80;99.90;;;;;;5009192;28;20489;-72
2022/03/29 10:50:56;;;;;;;8.10;2.33;;;11.00;99.90;;;;;;5013758;28;20044;-72
2022/03/29 10:53:29;;;;;;;1.95;1.02;;;11.20;99.90;;;;;;5013500;28;20543;-72
2022/03/29 10:56:13;;;;;;;5.70;2.10;;;11.40;99.90;;;;;;5013679;28;20045;-73
2022/03/29 10:59:11;;;;;;;3.83;3.38;;;11.50;99.90;;;;;;5001290;28;20481;-73
2022/03/29 11:01:39;;;;;;;1.30;1.20;;;11.50;99.90;;;;;;4919190;29;20456;-73
2022/03/29 11:04:07;;;;;;;2.45;2.05;;;11.40;99.90;;;;;;4936453;28;20377;-73
2022/03/29 11:06:33;;;;;;;1.58;1.23;;;11.40;99.90;;;;;;4965668;28;20051;-73
2022/03/29 11:09:03;;;;;;;0.98;0.95;;;11.50;99.90;;;;;;4943547;29;20135;-73
2022/03/29 11:11:51;;;;;;;8.13;3.35;;;11.50;99.90;;;;;;4967808;28;20050;-73
2022/03/29 11:14:35;;;;;;;2.17;1.98;;;11.70;99.90;;;;;;4967827;28;20066;-73
2022/03/29 11:17:08;;;;;;;8.27;3.05;;;11.80;99.90;;;;;;4941846;28;20066;-73
2022/03/29 11:19:48;;;;;;;8.05;4.22;;;11.80;99.90;;;;;;4969262;28;20046;-73
2022/03/29 11:22:28;;;;;;;10.35;2.58;;;11.60;99.90;;;;;;4952779;28;20136;-73
2022/03/29 11:24:56;;;;;;;8.07;2.72;;;11.50;99.90;;;;;;4950673;28;20527;-73
2022/03/29 11:27:24;;;;;;;1.73;1.08;;;11.40;99.90;;;;;;4952084;28;20057;-73
2022/03/29 11:29:50;;;;;;;13.30;3.88;;;11.40;99.90;;;;;;4954306;28;20035;-73
2022/03/29 11:32:17;;;;;;;1.65;1.25;;;11.40;99.90;;;;;;4952846;28;20043;-73
2022/03/29 11:34:44;;;;;;;0.30;0.30;;;11.40;99.90;;;;;;4962758;28;20038;-73
2022/03/29 11:37:31;;;;;;;3.75;1.40;;;11.40;99.90;;;;;;4989251;28;20128;-73
2022/03/29 11:39:59;;;;;;;13.68;3.17;;;11.40;99.90;;;;;;4990626;28;20060;-73
2022/03/29 11:42:40;;;;;;;3.55;2.00;;;11.50;99.90;;;;;;5010503;28;20045;-74
2022/03/29 11:45:07;;;;;;;4.88;2.35;;;11.80;99.90;;;;;;4990000;28;20057;-74
2022/03/29 11:47:33;;;;;;;1.13;1.08;;;11.80;99.90;;;;;;5007454;28;20045;-72
2022/03/29 11:49:58;;;;;;;7.28;3.28;;;11.80;99.90;;;;;;5003811;28;20110;-72
2022/03/29 11:52:35;;;;;;;1.00;0.47;;;11.60;99.90;;;;;;4989369;28;20034;-72
2022/03/29 11:55:00;;;;;;;2.55;1.45;;;11.40;99.90;;;;;;5019074;28;20033;-72
2022/03/29 11:57:30;;;;;;;3.50;1.95;;;11.20;99.90;;;;;;5020353;28;20603;-73
2022/03/29 11:59:57;;;;;;;4.55;1.92;;;11.10;99.90;;;;;;5023585;28;20129;-73
2022/03/29 12:02:25;;;;;;;9.73;1.25;;;11.00;99.90;;;;;;5020276;28;20046;-73
2022/03/29 12:04:52;;;;;;;1.73;1.63;;;11.00;99.90;;;;;;4983256;28;20045;-72
2022/03/29 12:07:34;;;;;;;5.65;1.95;;;11.00;99.90;;;;;;5007083;28;20061;-72
2022/03/29 12:10:00;;;;;;;7.55;3.05;;;11.10;99.90;;;;;;5007078;28;20127;-73
2022/03/29 12:12:25;;;;;;;2.47;1.73;;;11.20;99.90;;;;;;5003377;28;20401;-72
2022/03/29 12:15:06;;;;;;;10.10;4.15;;;11.40;99.90;;;;;;5011356;28;20041;-72
2022/03/29 12:17:34;;;;;;;2.38;2.20;;;11.40;99.90;;;;;;5005765;28;20045;-72
2022/03/29 12:20:00;;;;;;;4.85;2.10;;;11.50;99.90;;;;;;5006787;28;20099;-72
2022/03/29 12:22:29;;;;;;;0.45;0.45;;;11.60;99.90;;;;;;4990295;28;20037;-73
2022/03/29 12:24:57;;;;;;;12.80;3.17;;;11.80;99.90;;;;;;5006596;28;20057;-73
2022/03/29 12:27:23;;;;;;;3.75;2.50;;;12.00;99.90;;;;;;5007843;28;20046;-72
2022/03/29 12:30:00;;;;;;;4.00;1.85;;;12.30;99.90;;;;;;4976662;28;20061;-72
2022/03/29 12:32:26;;;;;;;0.70;0.70;;;12.40;99.90;;;;;;4992623;28;20076;-72
2022/03/29 12:35:03;;;;;;;3.80;1.80;;;12.30;99.90;;;;;;5003858;28;20041;-72
2022/03/29 12:37:29;;;;;;;15.07;5.28;;;12.30;99.90;;;;;;4995098;28;20083;-72
2022/03/29 12:40:00;;;;;;;5.57;2.72;;;12.60;99.90;;;;;;5010956;28;20128;-73
2022/03/29 12:42:30;;;;;;;3.70;2.90;;;12.90;99.90;;;;;;4995297;28;20123;-72
2022/03/29 12:44:59;;;;;;;3.20;2.17;;;12.90;99.90;;;;;;5012131;28;20530;-73
2022/03/29 12:47:26;;;;;;;4.63;2.00;;;12.70;97.80;;;;;;5011434;28;20041;-72
2022/03/29 12:49:52;;;;;;;8.18;2.65;;;12.50;99.10;;;;;;5011850;28;20037;-72
2022/03/29 12:52:19;;;;;;;2.85;1.83;;;12.40;99.80;;;;;;4995211;28;20396;-72
2022/03/29 12:54:49;;;;;;;15.43;3.03;;;12.60;99.90;;;;;;5010424;28;20152;-73
2022/03/29 12:57:21;;;;;;;1.05;1.05;;;12.70;99.90;;;;;;4987920;28;20120;-73
2022/03/29 12:59:48;;;;;;;5.75;2.63;;;12.60;99.90;;;;;;4991585;28;20477;-73
2022/03/29 13:02:24;;;;;;;10.80;3.60;;;12.50;99.90;;;;;;4996191;28;20037;-73
2022/03/29 13:05:00;;;;;;;5.63;2.33;;;12.50;99.50;;;;;;4994550;28;20592;-73